Time;durP1;ratioP1;P1;durP2;ratioP2;P2;SDS_P1;SDS_P2;PMS_P1;PMS_P2;Temp;Humidity;BMP_temperature;BMP_pressure;BME280_temperature;BME280_humidity;BME280_pressure;Samples;Min_cycle;Max_cycle;Signal;HPM_P1;HPM_P2
2021/09/08 00:00:06;;;;;;;11.07;5.22;;;17.10;99.90;;;;;;5074659;28;20470;-78
2021/09/08 00:02:32;;;;;;;12.23;5.32;;;17.10;99.90;;;;;;5056483;28;20031;-78
2021/09/08 00:04:57;;;;;;;10.98;4.85;;;17.10;99.90;;;;;;5055938;28;20413;-77
2021/09/08 00:07:23;;;;;;;13.35;5.55;;;17.10;99.90;;;;;;5074005;28;20020;-77
2021/09/08 00:09:48;;;;;;;12.20;5.15;;;17.10;99.90;;;;;;5073834;28;20438;-77
2021/09/08 00:12:14;;;;;;;12.45;4.65;;;17.00;99.90;;;;;;5056348;28;20032;-77
2021/09/08 00:14:40;;;;;;;11.48;4.72;;;17.00;99.90;;;;;;5073876;28;20031;-77
2021/09/08 00:17:06;;;;;;;10.43;5.00;;;17.00;99.90;;;;;;5074322;28;20021;-76
2021/09/08 00:19:31;;;;;;;9.35;4.57;;;17.00;99.90;;;;;;5055367;28;20078;-77
2021/09/08 00:21:57;;;;;;;11.55;5.75;;;16.90;99.90;;;;;;5045406;28;20084;-77
2021/09/08 00:24:22;;;;;;;12.95;5.55;;;16.90;99.90;;;;;;5036921;28;20367;-76
2021/09/08 00:26:48;;;;;;;12.00;5.45;;;16.90;99.90;;;;;;5036053;28;20068;-77
2021/09/08 00:29:13;;;;;;;9.55;4.70;;;16.90;99.90;;;;;;5054908;28;20029;-77
2021/09/08 00:31:39;;;;;;;14.98;5.97;;;16.90;99.90;;;;;;5037504;28;20466;-76
2021/09/08 00:34:05;;;;;;;12.75;5.03;;;16.80;99.90;;;;;;5035487;28;20170;-76
2021/09/08 00:36:30;;;;;;;11.50;4.70;;;16.80;99.90;;;;;;5035672;28;20534;-76
2021/09/08 00:38:56;;;;;;;12.60;5.28;;;16.70;99.90;;;;;;5053585;28;20472;-76
2021/09/08 00:41:23;;;;;;;8.75;4.70;;;16.70;99.90;;;;;;5069608;28;20466;-77
2021/09/08 00:43:48;;;;;;;10.98;4.80;;;16.70;99.90;;;;;;5055896;28;20024;-77
2021/09/08 00:46:14;;;;;;;10.88;5.05;;;16.60;99.90;;;;;;5073390;28;20477;-76
2021/09/08 00:48:40;;;;;;;12.48;5.50;;;16.60;99.90;;;;;;5073250;28;20358;-76
2021/09/08 00:51:05;;;;;;;12.05;5.38;;;16.60;99.90;;;;;;5055290;28;20016;-75
2021/09/08 00:53:33;;;;;;;16.15;5.15;;;16.50;99.90;;;;;;5055254;28;20123;-78
2021/09/08 00:56:01;;;;;;;10.43;5.00;;;16.50;99.90;;;;;;5074062;28;20024;-77
2021/09/08 00:58:27;;;;;;;10.65;4.50;;;16.50;99.90;;;;;;5073840;28;20017;-78
2021/09/08 01:00:52;;;;;;;10.93;4.97;;;16.50;99.90;;;;;;5055397;28;20074;-77
2021/09/08 01:03:18;;;;;;;11.93;4.72;;;16.40;99.90;;;;;;5073281;28;20029;-76
2021/09/08 01:05:47;;;;;;;11.55;4.85;;;16.40;99.90;;;;;;5073074;28;20028;-76
2021/09/08 01:08:13;;;;;;;13.25;5.57;;;16.30;99.90;;;;;;5073190;28;20017;-78
2021/09/08 01:10:39;;;;;;;9.82;4.88;;;16.30;99.90;;;;;;5072695;28;20111;-78
2021/09/08 01:13:06;;;;;;;10.93;4.95;;;16.30;99.90;;;;;;5055797;28;20102;-76
2021/09/08 01:15:32;;;;;;;12.98;5.72;;;16.40;99.90;;;;;;5074320;28;20036;-76
2021/09/08 01:17:57;;;;;;;11.75;5.05;;;16.40;99.90;;;;;;5077840;28;20024;-77
2021/09/08 01:20:23;;;;;;;10.80;5.18;;;16.30;99.90;;;;;;5052288;28;20033;-77
2021/09/08 01:22:51;;;;;;;10.45;5.25;;;16.40;99.90;;;;;;5057460;28;20439;-77
2021/09/08 01:25:22;;;;;;;10.23;4.55;;;16.40;99.90;;;;;;5039235;28;20029;-76
2021/09/08 01:27:50;;;;;;;11.40;4.70;;;16.40;99.90;;;;;;5039388;28;20115;-78
2021/09/08 01:30:17;;;;;;;10.77;4.80;;;16.40;99.90;;;;;;5045064;28;20028;-77
2021/09/08 01:32:43;;;;;;;7.63;4.35;;;16.30;99.90;;;;;;5058966;28;20111;-77
2021/09/08 01:35:09;;;;;;;8.93;4.55;;;16.30;99.90;;;;;;5059008;28;20458;-77
2021/09/08 01:37:34;;;;;;;11.90;4.38;;;16.20;99.90;;;;;;5077029;28;20406;-78
2021/09/08 01:40:00;;;;;;;9.82;4.70;;;16.10;99.90;;;;;;5055380;28;20021;-77
2021/09/08 01:42:25;;;;;;;10.40;4.18;;;16.00;99.90;;;;;;5039119;28;20021;-78
2021/09/08 01:44:51;;;;;;;8.52;4.13;;;15.90;99.90;;;;;;5041949;28;20024;-78
2021/09/08 01:47:17;;;;;;;10.63;4.97;;;15.90;99.90;;;;;;5076595;28;20081;-78
2021/09/08 01:49:42;;;;;;;11.60;5.85;;;15.90;99.90;;;;;;5057071;28;20075;-77
2021/09/08 01:52:08;;;;;;;11.13;5.30;;;15.80;99.90;;;;;;5057293;28;20029;-77
2021/09/08 01:54:33;;;;;;;11.75;4.88;;;15.90;99.90;;;;;;5050831;28;20114;-74
2021/09/08 01:56:59;;;;;;;13.90;5.63;;;15.90;99.90;;;;;;5076486;28;20016;-74
2021/09/08 01:59:24;;;;;;;10.43;4.97;;;15.90;99.90;;;;;;5073249;28;20029;-77
2021/09/08 02:01:50;;;;;;;12.93;5.15;;;15.90;99.90;;;;;;5056397;28;20028;-77
2021/09/08 02:04:15;;;;;;;15.80;5.47;;;15.90;99.90;;;;;;5060205;28;20056;-77
2021/09/08 02:06:49;;;;;;;11.82;4.88;;;15.90;99.90;;;;;;5076962;28;20500;-77
2021/09/08 02:09:15;;;;;;;10.10;5.00;;;15.90;99.90;;;;;;5075668;28;20048;-77
2021/09/08 02:11:41;;;;;;;8.88;4.28;;;16.50;99.90;;;;;;5059439;28;20025;-77
2021/09/08 02:14:07;;;;;;;10.57;4.88;;;15.80;99.90;;;;;;5076207;28;20082;-77
2021/09/08 02:16:32;;;;;;;12.30;5.82;;;15.80;99.90;;;;;;5056518;28;20433;-77
2021/09/08 02:18:58;;;;;;;10.27;5.10;;;15.80;99.90;;;;;;5039197;28;20036;-77
2021/09/08 02:21:23;;;;;;;11.55;5.30;;;15.80;99.90;;;;;;5038787;28;20029;-77
2021/09/08 02:23:50;;;;;;;10.63;4.65;;;15.80;99.90;;;;;;5056577;28;20111;-77
2021/09/08 02:26:16;;;;;;;11.45;5.18;;;15.70;99.90;;;;;;5057170;28;20061;-77
2021/09/08 02:28:41;;;;;;;10.73;4.78;;;15.70;99.90;;;;;;5076772;28;20024;-77
2021/09/08 02:31:07;;;;;;;14.23;6.20;;;15.70;99.90;;;;;;5038998;28;20524;-77
2021/09/08 02:33:33;;;;;;;10.80;5.05;;;15.70;99.90;;;;;;5070544;28;20064;-77
2021/09/08 02:35:58;;;;;;;13.05;5.55;;;15.70;99.90;;;;;;5060013;28;20024;-77
2021/09/08 02:38:24;;;;;;;10.52;4.90;;;15.70;99.90;;;;;;5067737;28;20129;-77
2021/09/08 02:40:49;;;;;;;11.55;5.30;;;15.70;99.90;;;;;;5059128;28;20021;-77
2021/09/08 02:43:15;;;;;;;11.63;5.32;;;15.60;99.90;;;;;;5056622;28;20025;-77
2021/09/08 02:45:41;;;;;;;12.95;4.95;;;15.60;99.90;;;;;;5057745;28;20467;-77
2021/09/08 02:48:06;;;;;;;13.27;5.90;;;15.60;99.90;;;;;;5037928;28;20051;-77
2021/09/08 02:50:32;;;;;;;10.57;5.03;;;15.60;99.90;;;;;;5055561;28;20042;-76
2021/09/08 02:52:57;;;;;;;14.23;5.80;;;15.60;99.90;;;;;;5037570;28;20028;-76
2021/09/08 02:55:23;;;;;;;10.48;5.50;;;15.50;99.90;;;;;;5066224;28;20025;-75
2021/09/08 02:57:48;;;;;;;11.02;5.22;;;15.50;99.90;;;;;;5065767;28;20028;-77
2021/09/08 03:00:14;;;;;;;14.23;5.75;;;15.50;99.90;;;;;;5067415;28;20029;-76
2021/09/08 03:02:40;;;;;;;11.93;5.47;;;15.50;99.90;;;;;;5075226;28;20387;-76
2021/09/08 03:05:06;;;;;;;11.32;4.97;;;15.40;99.90;;;;;;5049498;28;20024;-77
2021/09/08 03:07:32;;;;;;;12.02;4.82;;;15.40;99.90;;;;;;5038274;28;20520;-78
2021/09/08 03:09:57;;;;;;;14.77;5.28;;;15.30;99.90;;;;;;5055278;28;20037;-78
2021/09/08 03:12:23;;;;;;;12.57;5.55;;;15.30;99.90;;;;;;5037280;28;20124;-76
2021/09/08 03:14:48;;;;;;;11.73;5.72;;;15.30;99.90;;;;;;5038222;28;20107;-77
2021/09/08 03:17:14;;;;;;;12.80;5.63;;;15.30;99.90;;;;;;5038439;28;20052;-77
2021/09/08 03:19:39;;;;;;;12.85;5.90;;;15.30;99.90;;;;;;5044914;28;20008;-77
2021/09/08 03:22:05;;;;;;;12.57;5.13;;;15.20;99.90;;;;;;5076588;28;20070;-77
2021/09/08 03:24:31;;;;;;;10.43;4.85;;;15.20;99.90;;;;;;5074816;28;20036;-78
2021/09/08 03:26:56;;;;;;;12.40;5.90;;;15.20;99.90;;;;;;5051292;28;20094;-78
2021/09/08 03:29:22;;;;;;;12.15;5.15;;;15.20;99.90;;;;;;5037427;28;20116;-78
2021/09/08 03:31:47;;;;;;;12.40;5.18;;;15.20;99.90;;;;;;5037276;28;20070;-77
2021/09/08 03:34:13;;;;;;;14.95;5.95;;;15.20;99.90;;;;;;5044265;28;20044;-77
2021/09/08 03:36:38;;;;;;;11.73;5.57;;;15.20;99.90;;;;;;5057880;28;20394;-77
2021/09/08 03:39:04;;;;;;;13.70;5.55;;;15.20;99.90;;;;;;5054316;28;20020;-76
2021/09/08 03:41:31;;;;;;;10.48;5.32;;;15.10;99.90;;;;;;5054579;28;20056;-78
2021/09/08 03:43:56;;;;;;;11.00;5.68;;;15.10;99.90;;;;;;5054176;28;20063;-76
2021/09/08 03:46:22;;;;;;;11.13;5.03;;;15.10;99.90;;;;;;5054031;28;20025;-76
2021/09/08 03:48:47;;;;;;;12.32;6.00;;;15.00;99.90;;;;;;5054101;28;20024;-76
2021/09/08 03:51:13;;;;;;;12.40;6.00;;;15.00;99.90;;;;;;5073670;28;20197;-77
2021/09/08 03:53:38;;;;;;;12.88;5.97;;;14.90;99.90;;;;;;5074457;28;20024;-76
2021/09/08 03:56:04;;;;;;;9.93;5.60;;;14.90;99.90;;;;;;5074356;28;20020;-78
2021/09/08 03:58:30;;;;;;;12.15;5.97;;;14.90;99.90;;;;;;5073853;28;20028;-77
2021/09/08 04:00:56;;;;;;;15.23;6.30;;;14.90;99.90;;;;;;5057514;28;20074;-77
2021/09/08 04:03:21;;;;;;;14.70;6.35;;;14.90;99.90;;;;;;5036449;28;20491;-76
2021/09/08 04:05:47;;;;;;;12.98;5.72;;;14.80;99.90;;;;;;5053668;28;20070;-76
2021/09/08 04:08:12;;;;;;;11.15;5.90;;;14.80;99.90;;;;;;5053766;28;20013;-76
2021/09/08 04:10:38;;;;;;;12.55;6.03;;;14.70;99.90;;;;;;5055685;28;20029;-78
2021/09/08 04:13:05;;;;;;;11.55;5.68;;;14.70;99.90;;;;;;5054071;28;20458;-77
2021/09/08 04:15:30;;;;;;;12.45;4.57;;;14.70;99.90;;;;;;5053769;28;20112;-77
2021/09/08 04:17:56;;;;;;;10.52;5.63;;;14.60;99.90;;;;;;5053784;28;20139;-78
2021/09/08 04:20:22;;;;;;;12.43;5.50;;;14.70;99.90;;;;;;5049992;28;20021;-77
2021/09/08 04:22:48;;;;;;;14.20;5.38;;;14.70;99.90;;;;;;5073918;28;20535;-77
2021/09/08 04:25:13;;;;;;;13.32;6.50;;;14.60;99.90;;;;;;5073694;28;20016;-77
2021/09/08 04:27:39;;;;;;;9.23;4.35;;;14.60;99.90;;;;;;5055771;28;20031;-77
2021/09/08 04:30:05;;;;;;;11.05;5.63;;;14.60;99.90;;;;;;5062004;28;20029;-76
2021/09/08 04:32:31;;;;;;;13.32;5.30;;;14.60;99.90;;;;;;5073366;28;20025;-76
2021/09/08 04:34:57;;;;;;;13.82;7.22;;;14.60;99.90;;;;;;5073467;28;20100;-75
2021/09/08 04:37:22;;;;;;;14.48;5.80;;;14.60;99.90;;;;;;5073621;28;20146;-76
2021/09/08 04:39:48;;;;;;;12.80;6.10;;;14.60;99.90;;;;;;5055462;28;20520;-77
2021/09/08 04:42:13;;;;;;;14.30;5.60;;;14.60;99.90;;;;;;5058613;28;20033;-77
2021/09/08 04:44:39;;;;;;;12.27;5.80;;;14.60;99.90;;;;;;5056215;28;20033;-76
2021/09/08 04:47:05;;;;;;;14.13;6.35;;;14.60;99.90;;;;;;5053430;28;20028;-78
2021/09/08 04:49:30;;;;;;;12.68;5.85;;;14.60;99.90;;;;;;5053896;28;20449;-77
2021/09/08 04:51:56;;;;;;;13.07;6.13;;;14.50;99.90;;;;;;5050142;28;20047;-77
2021/09/08 04:54:22;;;;;;;14.73;6.32;;;14.50;99.90;;;;;;5073672;28;20028;-77
2021/09/08 04:56:47;;;;;;;13.00;6.28;;;14.60;99.90;;;;;;5061338;28;20521;-77
2021/09/08 04:59:13;;;;;;;12.63;6.43;;;14.50;99.90;;;;;;5035821;28;20036;-78
2021/09/08 05:01:38;;;;;;;12.05;5.45;;;14.50;99.90;;;;;;5064435;28;20104;-79
2021/09/08 05:04:04;;;;;;;14.15;6.45;;;14.50;99.90;;;;;;5055644;28;20044;-77
2021/09/08 05:06:29;;;;;;;15.38;6.50;;;14.50;99.90;;;;;;5073348;28;20020;-76
2021/09/08 05:08:56;;;;;;;11.48;6.00;;;14.40;99.90;;;;;;5073220;28;20501;-79
2021/09/08 05:11:22;;;;;;;15.70;6.50;;;14.40;99.90;;;;;;5065070;28;20037;-79
2021/09/08 05:13:48;;;;;;;14.82;6.18;;;14.40;99.90;;;;;;5035663;28;20112;-77
2021/09/08 05:16:13;;;;;;;12.57;5.78;;;14.40;99.90;;;;;;5035710;28;20025;-77
2021/09/08 05:18:39;;;;;;;15.38;6.55;;;14.40;99.90;;;;;;5053577;28;20025;-77
2021/09/08 05:21:05;;;;;;;14.40;6.68;;;14.40;99.90;;;;;;5059604;28;20047;-76
2021/09/08 05:23:30;;;;;;;17.50;7.22;;;14.40;99.90;;;;;;5073136;28;20017;-75
2021/09/08 05:25:56;;;;;;;14.82;7.00;;;14.50;99.90;;;;;;5037283;28;20036;-77
2021/09/08 05:28:21;;;;;;;12.60;6.00;;;14.50;99.90;;;;;;5118905;22;20520;-76
2021/09/08 05:30:47;;;;;;;13.43;5.93;;;14.50;99.90;;;;;;5077483;28;20019;-77
2021/09/08 05:33:13;;;;;;;13.00;6.25;;;14.50;99.90;;;;;;5072874;28;20029;-77
2021/09/08 05:35:39;;;;;;;12.65;6.57;;;14.60;99.90;;;;;;5075104;28;20115;-76
2021/09/08 05:38:10;;;;;;;15.30;6.72;;;14.70;99.90;;;;;;5092757;28;20034;-76
2021/09/08 05:40:36;;;;;;;12.65;6.53;;;14.80;99.90;;;;;;5092541;28;20055;-76
2021/09/08 05:43:01;;;;;;;16.00;7.10;;;14.90;99.90;;;;;;5092891;28;20016;-76
2021/09/08 05:45:27;;;;;;;17.33;6.72;;;15.00;99.90;;;;;;5074012;28;20471;-76
2021/09/08 05:47:53;;;;;;;17.65;6.82;;;15.10;99.90;;;;;;5092111;28;20503;-76
2021/09/08 05:50:19;;;;;;;14.50;6.63;;;15.20;99.90;;;;;;5074334;28;20111;-77
2021/09/08 05:52:44;;;;;;;13.88;6.85;;;15.20;99.90;;;;;;5070436;28;20393;-75
2021/09/08 05:55:10;;;;;;;14.43;6.28;;;15.30;99.90;;;;;;5105506;22;20483;-77
2021/09/08 05:57:36;;;;;;;14.90;6.65;;;15.40;99.90;;;;;;5092857;28;20043;-75
2021/09/08 06:00:04;;;;;;;14.48;6.70;;;15.40;99.90;;;;;;5074741;28;20031;-77
2021/09/08 06:02:30;;;;;;;15.70;7.20;;;15.50;99.90;;;;;;5077207;28;20016;-77
2021/09/08 06:04:55;;;;;;;16.05;6.75;;;15.60;99.90;;;;;;5078687;28;20499;-77
2021/09/08 06:07:21;;;;;;;13.73;6.22;;;15.70;99.90;;;;;;5096567;28;20026;-76
2021/09/08 06:09:47;;;;;;;16.73;6.38;;;15.80;99.90;;;;;;5096389;28;20020;-75
2021/09/08 06:12:12;;;;;;;14.00;6.97;;;15.90;99.90;;;;;;5096361;28;20082;-76
2021/09/08 06:14:38;;;;;;;13.48;6.97;;;15.90;99.90;;;;;;5078270;28;20082;-74
2021/09/08 06:17:04;;;;;;;16.50;6.90;;;16.00;99.90;;;;;;5096698;28;20046;-76
2021/09/08 06:19:29;;;;;;;12.18;6.15;;;16.10;99.90;;;;;;5096282;28;20016;-76
2021/09/08 06:21:55;;;;;;;16.17;6.85;;;16.20;99.90;;;;;;5053234;22;20111;-75
2021/09/08 06:24:20;;;;;;;13.02;7.05;;;16.20;99.90;;;;;;5055673;28;20036;-74
2021/09/08 06:26:46;;;;;;;12.80;6.38;;;16.30;99.90;;;;;;5056861;28;20098;-76
2021/09/08 06:29:11;;;;;;;14.38;6.38;;;16.40;99.90;;;;;;5037888;28;20036;-78
2021/09/08 06:31:37;;;;;;;14.20;6.85;;;16.50;99.90;;;;;;5055770;28;20021;-74
2021/09/08 06:34:02;;;;;;;13.15;6.15;;;16.50;99.90;;;;;;5037983;28;20025;-77
2021/09/08 06:36:28;;;;;;;14.65;6.82;;;16.70;99.90;;;;;;5039432;28;20382;-77
2021/09/08 06:38:53;;;;;;;15.43;6.75;;;16.80;99.90;;;;;;5038646;28;20496;-77
2021/09/08 06:41:19;;;;;;;18.27;7.18;;;16.90;99.90;;;;;;5056299;28;20497;-80
2021/09/08 06:43:48;;;;;;;13.45;6.90;;;17.00;99.90;;;;;;5058579;28;20029;-79
2021/09/08 06:46:14;;;;;;;14.68;6.45;;;17.10;99.90;;;;;;5056781;28;20021;-79
2021/09/08 06:48:40;;;;;;;12.15;5.85;;;17.20;99.90;;;;;;5056513;28;20087;-75
2021/09/08 06:51:05;;;;;;;12.60;5.80;;;17.30;99.90;;;;;;5038189;28;20029;-76
2021/09/08 06:53:31;;;;;;;14.90;7.35;;;17.40;99.90;;;;;;5056840;28;20036;-78
2021/09/08 06:55:57;;;;;;;13.30;6.25;;;17.50;99.90;;;;;;5056013;28;20496;-79
2021/09/08 06:58:25;;;;;;;12.95;6.20;;;17.60;99.90;;;;;;5037938;28;20039;-76
2021/09/08 07:00:51;;;;;;;11.95;6.15;;;18.90;99.90;;;;;;5055948;28;20017;-80
2021/09/08 07:03:17;;;;;;;14.80;6.00;;;17.80;99.90;;;;;;5038973;28;20021;-80
2021/09/08 07:05:42;;;;;;;11.68;5.72;;;18.00;99.90;;;;;;5055736;28;20021;-75
2021/09/08 07:08:09;;;;;;;14.50;6.05;;;18.10;99.90;;;;;;5037891;28;20032;-80
2021/09/08 07:10:36;;;;;;;13.93;6.32;;;18.20;99.90;;;;;;5037604;28;20033;-76
2021/09/08 07:13:01;;;;;;;14.77;5.97;;;18.30;99.90;;;;;;5037120;28;20028;-76
2021/09/08 07:15:27;;;;;;;14.35;5.38;;;18.40;99.90;;;;;;5037382;28;20029;-77
2021/09/08 07:17:52;;;;;;;11.98;5.40;;;18.50;99.90;;;;;;5055461;28;20387;-77
2021/09/08 07:20:18;;;;;;;11.90;5.40;;;18.60;99.90;;;;;;5055107;28;20029;-76
2021/09/08 07:22:43;;;;;;;11.13;5.40;;;18.80;99.90;;;;;;5037463;28;20471;-77
2021/09/08 07:25:09;;;;;;;12.85;5.22;;;18.90;99.90;;;;;;5055885;28;20016;-75
2021/09/08 07:27:35;;;;;;;10.63;5.10;;;19.00;99.90;;;;;;5054986;28;20063;-78
2021/09/08 07:30:01;;;;;;;12.27;5.28;;;19.20;99.90;;;;;;5055820;28;20470;-78
2021/09/08 07:32:27;;;;;;;13.27;4.82;;;19.30;99.90;;;;;;5055866;28;20036;-77
2021/09/08 07:34:57;;;;;;;14.65;4.95;;;19.40;99.90;;;;;;5036698;28;20013;-75
2021/09/08 07:37:23;;;;;;;12.85;5.25;;;19.50;99.90;;;;;;5036908;28;20367;-76
2021/09/08 07:39:50;;;;;;;9.02;4.55;;;19.60;99.90;;;;;;5036519;28;20029;-76
2021/09/08 07:42:16;;;;;;;12.00;5.22;;;19.70;99.90;;;;;;5036780;28;20044;-77
2021/09/08 07:44:43;;;;;;;9.88;4.32;;;19.90;99.90;;;;;;5055233;28;20021;-79
2021/09/08 07:47:09;;;;;;;11.85;4.55;;;20.00;99.90;;;;;;5036953;28;20096;-79
2021/09/08 07:49:35;;;;;;;12.05;4.22;;;20.10;99.90;;;;;;5037152;28;20067;-79
2021/09/08 07:52:01;;;;;;;11.52;4.65;;;20.20;99.90;;;;;;5055219;28;20527;-77
2021/09/08 07:54:27;;;;;;;11.80;4.47;;;20.40;99.90;;;;;;5054351;28;20029;-77
2021/09/08 07:56:53;;;;;;;11.90;4.63;;;20.50;99.90;;;;;;5036614;28;20020;-77
2021/09/08 07:59:18;;;;;;;10.70;5.22;;;20.60;99.90;;;;;;5036752;28;20025;-77
2021/09/08 08:01:44;;;;;;;8.60;3.78;;;20.70;99.90;;;;;;5036430;28;20449;-76
2021/09/08 08:04:10;;;;;;;10.55;4.40;;;20.70;99.90;;;;;;5035908;28;20021;-75
2021/09/08 08:06:37;;;;;;;10.10;4.75;;;20.80;99.90;;;;;;5053921;28;20079;-75
2021/09/08 08:09:06;;;;;;;9.48;4.55;;;21.00;99.90;;;;;;5055037;28;20024;-79
2021/09/08 08:11:32;;;;;;;12.65;4.80;;;21.00;99.90;;;;;;5038788;28;20036;-79
2021/09/08 08:13:58;;;;;;;15.20;4.38;;;21.20;99.90;;;;;;5055203;28;20060;-79
2021/09/08 08:16:23;;;;;;;12.63;4.85;;;21.20;99.90;;;;;;5036275;28;20022;-76
2021/09/08 08:18:49;;;;;;;10.82;4.72;;;21.20;99.90;;;;;;5053740;28;20060;-77
2021/09/08 08:21:14;;;;;;;16.90;5.30;;;21.40;99.90;;;;;;5036343;28;20072;-77
2021/09/08 08:23:40;;;;;;;17.33;5.40;;;21.40;99.90;;;;;;5035760;28;20566;-76
2021/09/08 08:26:06;;;;;;;11.65;4.65;;;21.50;99.90;;;;;;5036140;28;20059;-75
2021/09/08 08:28:31;;;;;;;14.95;5.43;;;21.60;99.90;;;;;;5054934;28;20017;-75
2021/09/08 08:30:59;;;;;;;15.65;5.32;;;21.60;99.90;;;;;;5053750;28;20424;-75
2021/09/08 08:33:27;;;;;;;12.05;4.55;;;21.70;99.90;;;;;;5054126;28;20099;-77
2021/09/08 08:35:53;;;;;;;9.80;5.25;;;21.80;99.90;;;;;;5054363;28;20383;-79
2021/09/08 08:38:20;;;;;;;11.15;4.88;;;21.90;99.90;;;;;;5055598;28;20028;-79
2021/09/08 08:40:47;;;;;;;10.45;4.43;;;22.00;99.90;;;;;;5055500;28;20021;-79
2021/09/08 08:43:13;;;;;;;12.20;4.90;;;22.00;99.90;;;;;;5053588;28;20052;-75
2021/09/08 08:45:39;;;;;;;12.50;5.53;;;22.20;99.90;;;;;;5053715;28;20029;-77
2021/09/08 08:48:06;;;;;;;12.15;4.97;;;22.30;99.90;;;;;;5050513;22;20031;-75
2021/09/08 08:50:33;;;;;;;12.00;4.75;;;22.40;99.90;;;;;;5073339;28;20021;-75
2021/09/08 08:52:59;;;;;;;9.80;5.15;;;22.50;99.90;;;;;;5058849;22;20067;-75
2021/09/08 08:55:25;;;;;;;16.52;5.82;;;22.50;99.90;;;;;;5053746;28;20025;-79
2021/09/08 08:57:51;;;;;;;9.32;4.30;;;22.60;99.90;;;;;;5036093;28;20052;-75
2021/09/08 09:00:20;;;;;;;9.63;5.05;;;22.80;99.90;;;;;;5053464;28;20388;-75
2021/09/08 09:02:48;;;;;;;12.63;5.63;;;22.90;99.90;;;;;;5053155;28;20029;-75
2021/09/08 09:05:32;;;;;;;8.77;4.78;;;23.00;99.90;;;;;;5053296;28;20021;-79
2021/09/08 09:07:58;;;;;;;9.10;4.47;;;23.00;99.90;;;;;;5054801;28;20028;-75
2021/09/08 09:10:24;;;;;;;11.80;5.03;;;23.20;99.90;;;;;;5035187;28;20021;-75
2021/09/08 09:12:49;;;;;;;8.48;4.63;;;23.30;99.90;;;;;;5036104;28;20032;-79
2021/09/08 09:15:18;;;;;;;9.35;4.70;;;23.30;99.90;;;;;;5055214;28;20092;-75
2021/09/08 09:17:45;;;;;;;11.60;4.38;;;23.60;99.90;;;;;;5035527;28;20150;-79
2021/09/08 09:20:23;;;;;;;10.80;4.35;;;23.50;99.90;;;;;;5053796;28;20028;-75
2021/09/08 09:22:54;;;;;;;11.10;4.77;;;23.40;99.90;;;;;;5054085;28;20025;-79
2021/09/08 09:25:26;;;;;;;11.45;4.72;;;23.80;99.20;;;;;;5035866;28;20274;-79
2021/09/08 09:28:00;;;;;;;8.55;4.32;;;23.80;98.80;;;;;;5037137;28;20045;-79
2021/09/08 09:30:27;;;;;;;10.90;4.68;;;23.90;98.70;;;;;;5037357;28;20089;-75
2021/09/08 09:32:55;;;;;;;9.97;5.27;;;23.90;98.10;;;;;;5053953;28;20024;-79
2021/09/08 09:35:23;;;;;;;8.52;4.38;;;24.00;98.80;;;;;;5053753;28;20021;-75
2021/09/08 09:37:52;;;;;;;10.65;4.78;;;24.10;98.40;;;;;;5056204;28;20021;-75
2021/09/08 09:40:26;;;;;;;9.13;4.85;;;24.40;97.40;;;;;;5057945;28;20092;-78
2021/09/08 09:42:52;;;;;;;10.82;4.60;;;24.30;96.70;;;;;;5040416;28;20017;-79
2021/09/08 09:45:18;;;;;;;8.82;4.10;;;24.40;97.40;;;;;;5058648;28;20025;-75
2021/09/08 09:47:45;;;;;;;9.73;4.10;;;24.50;96.10;;;;;;5057094;28;20025;-75
2021/09/08 09:50:17;;;;;;;9.07;4.18;;;24.70;95.30;;;;;;5038592;28;20486;-75
2021/09/08 09:52:48;;;;;;;10.93;3.78;;;24.70;95.20;;;;;;5056769;28;20029;-75
2021/09/08 09:55:14;;;;;;;9.63;3.78;;;24.80;94.70;;;;;;5038433;28;20024;-75
2021/09/08 09:57:41;;;;;;;8.43;3.42;;;24.90;94.20;;;;;;5057081;28;20028;-77
2021/09/08 10:00:07;;;;;;;11.00;4.10;;;24.90;94.10;;;;;;5038478;28;20021;-75
2021/09/08 10:02:33;;;;;;;11.88;3.35;;;24.90;93.40;;;;;;5039134;28;20045;-75
2021/09/08 10:04:59;;;;;;;8.10;3.58;;;25.00;92.80;;;;;;5056463;28;20075;-77
2021/09/08 10:07:26;;;;;;;9.05;2.90;;;25.30;92.30;;;;;;5038931;28;20029;-79
2021/09/08 10:10:20;;;;;;;6.40;2.67;;;25.20;91.90;;;;;;5039476;28;20433;-79
2021/09/08 10:12:56;;;;;;;7.78;3.03;;;25.30;91.60;;;;;;5052909;28;20496;-75
2021/09/08 10:15:23;;;;;;;5.88;2.60;;;25.40;91.40;;;;;;5039393;28;20359;-79
2021/09/08 10:17:49;;;;;;;6.22;3.17;;;25.50;90.90;;;;;;5058997;28;20020;-79
2021/09/08 10:20:25;;;;;;;6.88;2.85;;;25.60;90.70;;;;;;5038930;28;20020;-76
2021/09/08 10:22:51;;;;;;;7.45;3.45;;;25.70;90.00;;;;;;5056998;28;20513;-79
2021/09/08 10:25:22;;;;;;;6.57;3.03;;;25.70;85.80;;;;;;5039118;28;20052;-77
2021/09/08 10:27:55;;;;;;;6.40;2.42;;;25.80;85.00;;;;;;5056244;28;20017;-75
2021/09/08 10:30:25;;;;;;;4.95;2.72;;;25.90;83.30;;;;;;5038548;28;20136;-75
2021/09/08 10:32:54;;;;;;;5.22;2.60;;;26.10;85.10;;;;;;5057586;28;20017;-79
2021/09/08 10:35:22;;;;;;;5.40;2.30;;;26.20;83.00;;;;;;5041086;28;20025;-78
2021/09/08 10:37:53;;;;;;;4.90;2.37;;;26.30;81.20;;;;;;5056407;28;20045;-75
2021/09/08 10:40:21;;;;;;;6.57;2.63;;;26.30;78.80;;;;;;5056389;28;20060;-77
2021/09/08 10:42:50;;;;;;;5.43;2.35;;;26.40;80.50;;;;;;5038871;28;20028;-76
2021/09/08 10:45:17;;;;;;;5.93;2.97;;;26.50;78.80;;;;;;5055886;28;20036;-75
2021/09/08 10:47:43;;;;;;;11.18;2.70;;;26.60;78.10;;;;;;5037247;28;20112;-76
2021/09/08 10:50:09;;;;;;;5.28;2.55;;;26.70;77.50;;;;;;5055312;28;20506;-75
2021/09/08 10:52:38;;;;;;;5.60;1.98;;;26.80;76.90;;;;;;5037259;28;20037;-75
2021/09/08 10:55:12;;;;;;;5.28;1.60;;;26.90;76.20;;;;;;5055149;28;20024;-76
2021/09/08 10:57:41;;;;;;;3.88;1.73;;;27.10;75.10;;;;;;5055477;28;20056;-75
2021/09/08 11:00:12;;;;;;;4.53;2.50;;;27.20;73.90;;;;;;5055627;28;20505;-75
2021/09/08 11:02:39;;;;;;;4.45;2.13;;;27.30;72.40;;;;;;5057743;28;20390;-77
2021/09/08 11:05:05;;;;;;;3.72;2.10;;;27.30;71.20;;;;;;5054992;28;20036;-75
2021/09/08 11:07:31;;;;;;;5.32;2.58;;;27.40;71.50;;;;;;5037133;28;20029;-75
2021/09/08 11:09:57;;;;;;;5.90;1.80;;;27.50;70.70;;;;;;5055803;28;20490;-78
2021/09/08 11:12:51;;;;;;;5.95;2.40;;;27.60;69.80;;;;;;5039972;28;20025;-78
2021/09/08 11:15:28;;;;;;;4.63;2.10;;;27.80;68.80;;;;;;5055411;28;20112;-77
2021/09/08 11:17:53;;;;;;;4.35;2.20;;;28.00;69.50;;;;;;5055165;28;20100;-79
2021/09/08 11:20:19;;;;;;;4.70;2.00;;;28.10;68.10;;;;;;5037750;28;20017;-77
2021/09/08 11:23:02;;;;;;;4.38;2.10;;;28.20;65.60;;;;;;5055564;28;20037;-75
2021/09/08 11:25:29;;;;;;;4.03;2.38;;;28.30;65.30;;;;;;5037400;28;20020;-79
2021/09/08 11:27:55;;;;;;;4.28;1.65;;;28.40;66.00;;;;;;5055267;28;20055;-75
2021/09/08 11:30:21;;;;;;;3.83;2.15;;;28.50;66.40;;;;;;5037097;28;20033;-79
2021/09/08 11:32:55;;;;;;;5.53;2.72;;;28.70;66.50;;;;;;5056144;28;20020;-77
2021/09/08 11:35:46;;;;;;;3.95;2.03;;;28.80;65.10;;;;;;5055229;28;20437;-77
2021/09/08 11:38:18;;;;;;;4.13;2.00;;;28.90;64.00;;;;;;5055401;28;20470;-77
2021/09/08 11:40:50;;;;;;;5.20;2.38;;;29.00;62.90;;;;;;5054718;28;20184;-77
2021/09/08 11:43:56;;;;;;;3.55;1.90;;;29.10;62.70;;;;;;5036959;28;20021;-75
2021/09/08 11:46:26;;;;;;;3.63;1.95;;;29.10;61.90;;;;;;5036992;28;20179;-77
2021/09/08 11:48:54;;;;;;;3.72;1.95;;;29.30;61.40;;;;;;5055593;28;20021;-78
2021/09/08 11:51:24;;;;;;;5.43;2.13;;;29.40;61.20;;;;;;5057546;28;20044;-78
2021/09/08 11:53:54;;;;;;;3.38;1.98;;;29.50;60.50;;;;;;5056916;28;20490;-79
2021/09/08 11:56:24;;;;;;;6.05;2.20;;;29.60;62.30;;;;;;5039158;28;20108;-78
2021/09/08 11:59:24;;;;;;;4.30;1.80;;;29.80;60.10;;;;;;5056476;28;20104;-78
2021/09/08 12:01:50;;;;;;;3.40;1.23;;;29.80;60.70;;;;;;5037444;28;20025;-78
2021/09/08 12:04:16;;;;;;;2.92;1.80;;;30.00;59.40;;;;;;5056907;28;20025;-78
2021/09/08 12:06:58;;;;;;;3.13;1.67;;;30.00;57.80;;;;;;5056543;28;20031;-79
2021/09/08 12:09:34;;;;;;;3.65;1.77;;;30.00;58.00;;;;;;5037253;28;20036;-75
2021/09/08 12:12:02;;;;;;;2.75;1.00;;;30.20;59.40;;;;;;5036032;28;20029;-75
2021/09/08 12:14:44;;;;;;;1.98;0.95;;;30.50;56.20;;;;;;5053654;28;20408;-75
2021/09/08 12:17:12;;;;;;;6.07;1.33;;;30.60;53.50;;;;;;5054082;28;20067;-75
2021/09/08 12:19:40;;;;;;;;;;;30.60;53.80;;;;;;5038198;28;20044;-79
2021/09/08 12:22:15;;;;;;;2.13;0.97;;;30.70;51.00;;;;;;5035983;28;19909;-75
2021/09/08 12:24:42;;;;;;;1.75;0.73;;;30.70;50.80;;;;;;5053721;28;20053;-77
2021/09/08 12:27:32;;;;;;;4.25;1.55;;;30.60;50.90;;;;;;5054435;28;20433;-77
2021/09/08 12:30:10;;;;;;;2.35;1.27;;;30.80;49.70;;;;;;5054094;28;20029;-77
2021/09/08 12:32:55;;;;;;;;;;;30.90;51.40;;;;;;5057315;28;20425;-78
2021/09/08 12:35:43;;;;;;;4.43;2.47;;;31.10;50.80;;;;;;5037083;28;19913;-75
2021/09/08 12:38:35;;;;;;;2.25;1.55;;;31.30;50.00;;;;;;5053411;28;20013;-76
2021/09/08 12:41:30;;;;;;;3.47;1.30;;;31.40;50.50;;;;;;5053813;28;20536;-75